Gallup Municipal Airport
KGUP : rendu visible

Aérodrome :











RETROUVEZ-NOUS SUR...

 
LOGIN :

S'inscrire | Disclaimer

   EN    FR    IT 

 









Légende :    VFR   VFR Marginal   IFR   IFR Intensif   IFR Très Intensif
Visi : 
Plafond : 
>= 8 km
>= 3000ft
5 à 8 km
1000 à 3000 ft
1500m à 5 km
500 à 1000 ft
800 à 1500m
200 à 500 ft
< 800m
< 200 ft
Symboles :   Orages  Brouillard  Fortes neiges  Fortes précipitations  Vent > 20 kt






- Altitude de l'aérodrome : 6472 ft
- Code IATA : GUP


KGUP - Gallup Municipal

DERNIER METAR :
  • 251753Z AUTO 30007G15KT 10SM CLR 19/M11 A3009 RMK AO2 SLP094 T01891106 10194 21028 55005

METARs EXPIRÉS :
  • 251653Z AUTO 29013G18KT 10SM CLR 18/M11 A3009 RMK AO2 WSHFT 1556 SLP075 T01831106
  • 251616Z AUTO 33013G17KT 10SM CLR 17/M10 A3009 RMK AO2 WSHFT 1556 T01721100
  • 251553Z AUTO 31007KT 10SM CLR 17/M10 A3010 RMK AO2 SLP072 T01671100

TAF KGUP
Valide du 25 à 18h jusqu'au 26 à 18h UTC


251720Z 2518/2618 32012G18KT P6SM SKC
FM260200 04007KT P6SM SKC
FM260400 VRB06KT P6SM SKC
FM261700 32008KT P6SM SKC
FIR KZAB / Amérique du Nord



MET'MAP, la Météo Aéronautique d'un coup d'oeil ! - Copyright ORBIFLY Décembre 2007 - Disclaimer

ORBIFLY MET'MAP TEAM :

Programmation & Développement : Alexandra Zaïnal
Sur une idée originale de : Baudouin d'Aumeries
Assistance à la programmation : Marc-Olivier Méhu
Soutien technique & logistique : Manuel Goepfert

Contact : metmap@orbifly.com




SOURCES & CREDITS :

   NOAA       Earth
Advisory